sensor_id;sensor_type;location;lat;lon;timestamp;temperature;humidity
34099;DHT22;20374;49.474;10.944;2023-05-07T00:01:57;13.20;99.90
34099;DHT22;20374;49.474;10.944;2023-05-07T00:04:22;13.30;99.90
34099;DHT22;20374;49.474;10.944;2023-05-07T00:06:48;13.30;99.90
34099;DHT22;20374;49.474;10.944;2023-05-07T00:09:14;13.30;99.90
34099;DHT22;20374;49.474;10.944;2023-05-07T00:11:40;13.30;99.90
34099;DHT22;20374;49.474;10.944;2023-05-07T00:14:06;13.40;99.90
34099;DHT22;20374;49.474;10.944;2023-05-07T00:16:32;13.40;99.90
34099;DHT22;20374;49.474;10.944;2023-05-07T00:18:58;13.40;99.90
34099;DHT22;20374;49.474;10.944;2023-05-07T00:21:24;13.50;99.90
34099;DHT22;20374;49.474;10.944;2023-05-07T00:23:53;13.50;99.90
34099;DHT22;20374;49.474;10.944;2023-05-07T00:26:19;13.50;99.90
34099;DHT22;20374;49.474;10.944;2023-05-07T00:28:48;13.50;99.90
34099;DHT22;20374;49.474;10.944;2023-05-07T00:31:14;13.50;99.90
34099;DHT22;20374;49.474;10.944;2023-05-07T00:33:40;13.60;99.90
34099;DHT22;20374;49.474;10.944;2023-05-07T00:36:07;13.60;99.90
34099;DHT22;20374;49.474;10.944;2023-05-07T00:38:32;13.60;99.90
34099;DHT22;20374;49.474;10.944;2023-05-07T00:40:58;13.70;99.90
34099;DHT22;20374;49.474;10.944;2023-05-07T00:43:24;13.70;99.90
34099;DHT22;20374;49.474;10.944;2023-05-07T00:45:51;13.60;99.90
34099;DHT22;20374;49.474;10.944;2023-05-07T00:48:17;13.60;99.90
34099;DHT22;20374;49.474;10.944;2023-05-07T00:50:43;13.60;99.90
34099;DHT22;20374;49.474;10.944;2023-05-07T00:53:09;13.60;99.90
34099;DHT22;20374;49.474;10.944;2023-05-07T00:55:36;13.60;99.90
34099;DHT22;20374;49.474;10.944;2023-05-07T00:58:02;13.60;99.90
34099;DHT22;20374;49.474;10.944;2023-05-07T01:00:28;13.60;99.90
34099;DHT22;20374;49.474;10.944;2023-05-07T01:02:55;13.60;99.90
34099;DHT22;20374;49.474;10.944;2023-05-07T01:05:23;13.60;99.90
34099;DHT22;20374;49.474;10.944;2023-05-07T01:07:50;13.60;99.90
34099;DHT22;20374;49.474;10.944;2023-05-07T01:10:18;13.60;99.90
34099;DHT22;20374;49.474;10.944;2023-05-07T01:12:45;13.60;99.90
34099;DHT22;20374;49.474;10.944;2023-05-07T01:15:12;13.60;99.90
34099;DHT22;20374;49.474;10.944;2023-05-07T01:17:40;13.50;99.90
34099;DHT22;20374;49.474;10.944;2023-05-07T01:20:10;13.60;99.90
34099;DHT22;20374;49.474;10.944;2023-05-07T01:22:37;13.60;99.90
34099;DHT22;20374;49.474;10.944;2023-05-07T01:25:05;13.50;99.90
34099;DHT22;20374;49.474;10.944;2023-05-07T01:27:33;13.50;99.90
34099;DHT22;20374;49.474;10.944;2023-05-07T01:30:00;13.50;99.90
34099;DHT22;20374;49.474;10.944;2023-05-07T01:32:37;13.50;99.90
34099;DHT22;20374;49.474;10.944;2023-05-07T01:35:08;13.50;99.90
34099;DHT22;20374;49.474;10.944;2023-05-07T01:37:35;13.60;99.90
34099;DHT22;20374;49.474;10.944;2023-05-07T01:40:02;13.60;99.90
34099;DHT22;20374;49.474;10.944;2023-05-07T01:42:29;13.60;99.90
34099;DHT22;20374;49.474;10.944;2023-05-07T01:44:55;13.60;99.90
34099;DHT22;20374;49.474;10.944;2023-05-07T01:47:21;13.60;99.90
34099;DHT22;20374;49.474;10.944;2023-05-07T01:49:48;13.60;99.90
34099;DHT22;20374;49.474;10.944;2023-05-07T01:52:14;13.50;99.90
34099;DHT22;20374;49.474;10.944;2023-05-07T01:54:40;13.50;99.90
34099;DHT22;20374;49.474;10.944;2023-05-07T01:57:06;13.50;99.90
34099;DHT22;20374;49.474;10.944;2023-05-07T01:59:33;13.50;99.90
34099;DHT22;20374;49.474;10.944;2023-05-07T02:01:59;13.40;99.90
34099;DHT22;20374;49.474;10.944;2023-05-07T02:04:25;13.40;99.90
34099;DHT22;20374;49.474;10.944;2023-05-07T02:06:52;13.40;99.90
34099;DHT22;20374;49.474;10.944;2023-05-07T02:09:19;13.30;99.90
34099;DHT22;20374;49.474;10.944;2023-05-07T02:11:47;13.30;99.90
34099;DHT22;20374;49.474;10.944;2023-05-07T02:14:13;13.30;99.90
34099;DHT22;20374;49.474;10.944;2023-05-07T02:16:39;13.20;99.90
34099;DHT22;20374;49.474;10.944;2023-05-07T02:19:06;13.20;99.90
34099;DHT22;20374;49.474;10.944;2023-05-07T02:21:32;13.10;99.90
34099;DHT22;20374;49.474;10.944;2023-05-07T02:23:57;13.10;99.90
34099;DHT22;20374;49.474;10.944;2023-05-07T02:26:23;13.00;99.90
34099;DHT22;20374;49.474;10.944;2023-05-07T02:28:50;13.00;99.90
34099;DHT22;20374;49.474;10.944;2023-05-07T02:31:17;12.90;99.90
34099;DHT22;20374;49.474;10.944;2023-05-07T02:33:43;12.80;99.90
34099;DHT22;20374;49.474;10.944;2023-05-07T02:36:10;12.70;99.90
34099;DHT22;20374;49.474;10.944;2023-05-07T02:38:42;12.60;99.90
34099;DHT22;20374;49.474;10.944;2023-05-07T02:41:09;12.60;99.90
34099;DHT22;20374;49.474;10.944;2023-05-07T02:43:36;12.50;99.90
34099;DHT22;20374;49.474;10.944;2023-05-07T02:46:06;12.30;99.90
34099;DHT22;20374;49.474;10.944;2023-05-07T02:48:35;12.20;99.90
34099;DHT22;20374;49.474;10.944;2023-05-07T02:51:02;12.30;99.90
34099;DHT22;20374;49.474;10.944;2023-05-07T02:53:29;12.10;99.90
34099;DHT22;20374;49.474;10.944;2023-05-07T02:55:57;12.10;99.90
34099;DHT22;20374;49.474;10.944;2023-05-07T02:58:23;12.00;99.90
34099;DHT22;20374;49.474;10.944;2023-05-07T03:00:49;11.90;99.90
34099;DHT22;20374;49.474;10.944;2023-05-07T03:03:41;11.90;99.90
34099;DHT22;20374;49.474;10.944;2023-05-07T03:06:07;11.90;99.90
34099;DHT22;20374;49.474;10.944;2023-05-07T03:08:33;11.80;99.90
34099;DHT22;20374;49.474;10.944;2023-05-07T03:10:59;11.70;99.90
34099;DHT22;20374;49.474;10.944;2023-05-07T03:13:25;11.70;99.90
34099;DHT22;20374;49.474;10.944;2023-05-07T03:15:52;11.70;99.90
34099;DHT22;20374;49.474;10.944;2023-05-07T03:18:18;11.60;99.90
34099;DHT22;20374;49.474;10.944;2023-05-07T03:20:44;11.60;99.90
34099;DHT22;20374;49.474;10.944;2023-05-07T03:23:09;11.60;99.90
34099;DHT22;20374;49.474;10.944;2023-05-07T03:25:36;11.60;99.90
34099;DHT22;20374;49.474;10.944;2023-05-07T03:28:02;11.60;99.90
34099;DHT22;20374;49.474;10.944;2023-05-07T03:30:36;11.60;99.90
34099;DHT22;20374;49.474;10.944;2023-05-07T03:33:02;11.60;99.90
34099;DHT22;20374;49.474;10.944;2023-05-07T03:35:28;11.70;99.90
34099;DHT22;20374;49.474;10.944;2023-05-07T03:37:54;11.70;99.90
34099;DHT22;20374;49.474;10.944;2023-05-07T03:40:21;11.70;99.90
34099;DHT22;20374;49.474;10.944;2023-05-07T03:42:52;11.80;99.90
34099;DHT22;20374;49.474;10.944;2023-05-07T03:45:20;11.80;99.90
34099;DHT22;20374;49.474;10.944;2023-05-07T03:47:56;11.80;99.90
34099;DHT22;20374;49.474;10.944;2023-05-07T03:50:22;11.70;99.90
34099;DHT22;20374;49.474;10.944;2023-05-07T03:52:48;11.60;99.90
34099;DHT22;20374;49.474;10.944;2023-05-07T03:55:16;11.60;99.90
34099;DHT22;20374;49.474;10.944;2023-05-07T03:57:48;11.50;99.90
34099;DHT22;20374;49.474;10.944;2023-05-07T04:00:14;11.50;99.90
34099;DHT22;20374;49.474;10.944;2023-05-07T04:02:46;11.50;99.90
34099;DHT22;20374;49.474;10.944;2023-05-07T04:05:14;11.50;99.90
34099;DHT22;20374;49.474;10.944;2023-05-07T04:07:42;11.50;99.90
34099;DHT22;20374;49.474;10.944;2023-05-07T04:10:10;11.50;99.90
34099;DHT22;20374;49.474;10.944;2023-05-07T04:12:38;11.50;99.90
34099;DHT22;20374;49.474;10.944;2023-05-07T04:15:06;11.50;99.90
34099;DHT22;20374;49.474;10.944;2023-05-07T04:17:33;11.80;99.90
34099;DHT22;20374;49.474;10.944;2023-05-07T04:19:59;11.60;99.90
34099;DHT22;20374;49.474;10.944;2023-05-07T04:22:26;11.70;99.90
34099;DHT22;20374;49.474;10.944;2023-05-07T04:24:53;11.80;99.90
34099;DHT22;20374;49.474;10.944;2023-05-07T04:27:19;11.80;99.90
34099;DHT22;20374;49.474;10.944;2023-05-07T04:29:46;11.90;99.90
34099;DHT22;20374;49.474;10.944;2023-05-07T04:32:14;12.00;99.90
34099;DHT22;20374;49.474;10.944;2023-05-07T04:34:40;12.10;99.90
34099;DHT22;20374;49.474;10.944;2023-05-07T04:37:07;12.10;99.90
34099;DHT22;20374;49.474;10.944;2023-05-07T04:39:33;12.20;99.90
34099;DHT22;20374;49.474;10.944;2023-05-07T04:42:01;12.30;99.90
34099;DHT22;20374;49.474;10.944;2023-05-07T04:44:29;12.40;99.90
34099;DHT22;20374;49.474;10.944;2023-05-07T04:46:56;12.60;99.90
34099;DHT22;20374;49.474;10.944;2023-05-07T04:49:23;12.80;99.90
34099;DHT22;20374;49.474;10.944;2023-05-07T04:51:51;12.80;99.90
34099;DHT22;20374;49.474;10.944;2023-05-07T04:54:20;13.00;99.90
34099;DHT22;20374;49.474;10.944;2023-05-07T04:56:46;13.00;99.90
34099;DHT22;20374;49.474;10.944;2023-05-07T04:59:12;13.10;99.90
34099;DHT22;20374;49.474;10.944;2023-05-07T05:01:38;13.20;99.90
34099;DHT22;20374;49.474;10.944;2023-05-07T05:04:04;13.20;99.90
34099;DHT22;20374;49.474;10.944;2023-05-07T05:06:30;13.20;99.90
34099;DHT22;20374;49.474;10.944;2023-05-07T05:08:56;13.30;99.90
34099;DHT22;20374;49.474;10.944;2023-05-07T05:11:25;13.30;99.90
34099;DHT22;20374;49.474;10.944;2023-05-07T05:13:52;13.60;99.90
34099;DHT22;20374;49.474;10.944;2023-05-07T05:16:20;13.70;99.90
34099;DHT22;20374;49.474;10.944;2023-05-07T05:18:46;13.80;99.90
34099;DHT22;20374;49.474;10.944;2023-05-07T05:21:15;13.90;99.90
34099;DHT22;20374;49.474;10.944;2023-05-07T05:23:43;14.20;99.90
34099;DHT22;20374;49.474;10.944;2023-05-07T05:26:09;14.40;99.90
34099;DHT22;20374;49.474;10.944;2023-05-07T05:28:35;14.70;99.90
34099;DHT22;20374;49.474;10.944;2023-05-07T05:31:02;15.00;99.90
34099;DHT22;20374;49.474;10.944;2023-05-07T05:33:32;15.20;99.90
34099;DHT22;20374;49.474;10.944;2023-05-07T05:36:02;15.30;99.90
34099;DHT22;20374;49.474;10.944;2023-05-07T05:38:28;15.30;99.90
34099;DHT22;20374;49.474;10.944;2023-05-07T05:40:54;15.10;99.90
34099;DHT22;20374;49.474;10.944;2023-05-07T05:43:20;14.90;99.90
34099;DHT22;20374;49.474;10.944;2023-05-07T05:45:47;14.70;99.90
34099;DHT22;20374;49.474;10.944;2023-05-07T05:48:13;14.60;99.90
34099;DHT22;20374;49.474;10.944;2023-05-07T05:50:41;14.50;99.90
34099;DHT22;20374;49.474;10.944;2023-05-07T05:53:08;14.40;99.90
34099;DHT22;20374;49.474;10.944;2023-05-07T05:55:34;14.30;99.90
34099;DHT22;20374;49.474;10.944;2023-05-07T05:58:00;14.30;99.90
34099;DHT22;20374;49.474;10.944;2023-05-07T06:00:28;14.30;99.90
34099;DHT22;20374;49.474;10.944;2023-05-07T06:03:00;14.40;99.90
34099;DHT22;20374;49.474;10.944;2023-05-07T06:05:27;14.40;99.90
34099;DHT22;20374;49.474;10.944;2023-05-07T06:07:55;14.40;99.90
34099;DHT22;20374;49.474;10.944;2023-05-07T06:10:21;14.40;99.90
34099;DHT22;20374;49.474;10.944;2023-05-07T06:12:47;14.50;99.90
34099;DHT22;20374;49.474;10.944;2023-05-07T06:15:15;14.70;99.90
34099;DHT22;20374;49.474;10.944;2023-05-07T06:17:41;14.90;99.90
34099;DHT22;20374;49.474;10.944;2023-05-07T06:20:09;14.90;99.90
34099;DHT22;20374;49.474;10.944;2023-05-07T06:22:36;15.00;99.90
34099;DHT22;20374;49.474;10.944;2023-05-07T06:25:02;15.10;99.90
34099;DHT22;20374;49.474;10.944;2023-05-07T06:27:29;15.30;99.90
34099;DHT22;20374;49.474;10.944;2023-05-07T06:29:55;15.40;99.90
34099;DHT22;20374;49.474;10.944;2023-05-07T06:32:21;15.60;99.90
34099;DHT22;20374;49.474;10.944;2023-05-07T06:34:48;15.60;99.90
34099;DHT22;20374;49.474;10.944;2023-05-07T06:37:15;15.70;99.90
34099;DHT22;20374;49.474;10.944;2023-05-07T06:40:00;15.70;99.90
34099;DHT22;20374;49.474;10.944;2023-05-07T06:42:27;15.90;99.90
34099;DHT22;20374;49.474;10.944;2023-05-07T06:44:58;15.90;99.90
34099;DHT22;20374;49.474;10.944;2023-05-07T06:47:24;16.10;99.90
34099;DHT22;20374;49.474;10.944;2023-05-07T06:49:53;16.30;99.90
34099;DHT22;20374;49.474;10.944;2023-05-07T06:52:22;16.40;99.90
34099;DHT22;20374;49.474;10.944;2023-05-07T06:54:50;16.80;99.90
34099;DHT22;20374;49.474;10.944;2023-05-07T06:57:18;17.30;99.90
34099;DHT22;20374;49.474;10.944;2023-05-07T06:59:43;17.50;99.90
34099;DHT22;20374;49.474;10.944;2023-05-07T07:02:09;17.70;99.90
34099;DHT22;20374;49.474;10.944;2023-05-07T07:04:36;18.00;99.90
34099;DHT22;20374;49.474;10.944;2023-05-07T07:07:05;18.40;99.90
34099;DHT22;20374;49.474;10.944;2023-05-07T07:09:31;18.80;99.90
34099;DHT22;20374;49.474;10.944;2023-05-07T07:11:59;19.50;99.30
34099;DHT22;20374;49.474;10.944;2023-05-07T07:14:25;20.40;97.20
34099;DHT22;20374;49.474;10.944;2023-05-07T07:16:53;20.80;96.00
34099;DHT22;20374;49.474;10.944;2023-05-07T07:19:20;20.90;95.50
34099;DHT22;20374;49.474;10.944;2023-05-07T07:21:48;20.90;94.80
34099;DHT22;20374;49.474;10.944;2023-05-07T07:24:14;20.30;96.20
34099;DHT22;20374;49.474;10.944;2023-05-07T07:26:49;19.80;96.20
34099;DHT22;20374;49.474;10.944;2023-05-07T07:29:16;19.70;96.50
34099;DHT22;20374;49.474;10.944;2023-05-07T07:31:44;19.50;97.00
34099;DHT22;20374;49.474;10.944;2023-05-07T07:34:10;19.40;97.20
34099;DHT22;20374;49.474;10.944;2023-05-07T07:36:37;19.20;97.40
34099;DHT22;20374;49.474;10.944;2023-05-07T07:39:03;19.20;97.30
34099;DHT22;20374;49.474;10.944;2023-05-07T07:41:29;18.80;98.50
34099;DHT22;20374;49.474;10.944;2023-05-07T07:43:55;18.60;98.70
34099;DHT22;20374;49.474;10.944;2023-05-07T07:46:21;18.40;99.90
34099;DHT22;20374;49.474;10.944;2023-05-07T07:48:47;18.50;99.90
34099;DHT22;20374;49.474;10.944;2023-05-07T07:51:14;18.70;99.60
34099;DHT22;20374;49.474;10.944;2023-05-07T07:53:40;18.70;99.40
34099;DHT22;20374;49.474;10.944;2023-05-07T07:56:07;18.90;99.20
34099;DHT22;20374;49.474;10.944;2023-05-07T07:58:34;19.20;99.10
34099;DHT22;20374;49.474;10.944;2023-05-07T08:01:01;19.30;98.90
34099;DHT22;20374;49.474;10.944;2023-05-07T08:03:28;19.40;98.60
34099;DHT22;20374;49.474;10.944;2023-05-07T08:05:57;19.50;99.10
34099;DHT22;20374;49.474;10.944;2023-05-07T08:08:24;19.70;98.60
34099;DHT22;20374;49.474;10.944;2023-05-07T08:10:54;19.80;98.70
34099;DHT22;20374;49.474;10.944;2023-05-07T08:13:27;19.90;98.50
34099;DHT22;20374;49.474;10.944;2023-05-07T08:15:53;19.90;97.80
34099;DHT22;20374;49.474;10.944;2023-05-07T08:18:19;20.10;97.70
34099;DHT22;20374;49.474;10.944;2023-05-07T08:20:45;20.20;96.60
34099;DHT22;20374;49.474;10.944;2023-05-07T08:23:16;20.50;96.70
34099;DHT22;20374;49.474;10.944;2023-05-07T08:25:44;20.80;96.90
34099;DHT22;20374;49.474;10.944;2023-05-07T08:28:11;21.20;96.30
34099;DHT22;20374;49.474;10.944;2023-05-07T08:30:38;21.70;94.70
34099;DHT22;20374;49.474;10.944;2023-05-07T08:33:04;21.90;95.00
34099;DHT22;20374;49.474;10.944;2023-05-07T08:35:30;22.00;93.60
34099;DHT22;20374;49.474;10.944;2023-05-07T08:37:56;21.80;94.00
34099;DHT22;20374;49.474;10.944;2023-05-07T08:40:26;21.90;93.40
34099;DHT22;20374;49.474;10.944;2023-05-07T08:42:57;22.10;94.30
34099;DHT22;20374;49.474;10.944;2023-05-07T08:45:24;22.40;94.00
34099;DHT22;20374;49.474;10.944;2023-05-07T08:47:58;22.70;92.60
34099;DHT22;20374;49.474;10.944;2023-05-07T08:50:38;22.90;91.60
34099;DHT22;20374;49.474;10.944;2023-05-07T08:53:04;23.70;91.10
34099;DHT22;20374;49.474;10.944;2023-05-07T08:55:31;24.80;90.20
34099;DHT22;20374;49.474;10.944;2023-05-07T08:57:59;25.40;86.70
34099;DHT22;20374;49.474;10.944;2023-05-07T09:00:25;25.80;86.70
34099;DHT22;20374;49.474;10.944;2023-05-07T09:02:53;26.40;83.50
34099;DHT22;20374;49.474;10.944;2023-05-07T09:05:20;26.90;78.70
34099;DHT22;20374;49.474;10.944;2023-05-07T09:07:46;26.60;76.90
34099;DHT22;20374;49.474;10.944;2023-05-07T09:10:14;25.80;78.90
34099;DHT22;20374;49.474;10.944;2023-05-07T09:12:42;25.10;81.50
34099;DHT22;20374;49.474;10.944;2023-05-07T09:15:10;25.20;82.60
34099;DHT22;20374;49.474;10.944;2023-05-07T09:17:36;25.60;79.00
34099;DHT22;20374;49.474;10.944;2023-05-07T09:20:03;26.20;79.30
34099;DHT22;20374;49.474;10.944;2023-05-07T09:22:36;27.00;76.40
34099;DHT22;20374;49.474;10.944;2023-05-07T09:25:06;27.20;76.40
34099;DHT22;20374;49.474;10.944;2023-05-07T09:27:33;27.50;76.10
34099;DHT22;20374;49.474;10.944;2023-05-07T09:30:02;27.70;72.80
34099;DHT22;20374;49.474;10.944;2023-05-07T09:32:28;28.50;70.70
34099;DHT22;20374;49.474;10.944;2023-05-07T09:34:57;28.80;70.40
34099;DHT22;20374;49.474;10.944;2023-05-07T09:37:26;29.80;69.30
34099;DHT22;20374;49.474;10.944;2023-05-07T09:39:52;30.40;64.80
34099;DHT22;20374;49.474;10.944;2023-05-07T09:42:24;30.80;62.10
34099;DHT22;20374;49.474;10.944;2023-05-07T09:44:53;31.10;60.00
34099;DHT22;20374;49.474;10.944;2023-05-07T09:47:24;30.90;60.80
34099;DHT22;20374;49.474;10.944;2023-05-07T09:49:56;30.10;59.40
34099;DHT22;20374;49.474;10.944;2023-05-07T09:52:24;30.00;62.90
34099;DHT22;20374;49.474;10.944;2023-05-07T09:54:54;29.70;63.30
34099;DHT22;20374;49.474;10.944;2023-05-07T09:57:24;29.90;60.80
34099;DHT22;20374;49.474;10.944;2023-05-07T09:59:56;29.90;62.50
34099;DHT22;20374;49.474;10.944;2023-05-07T10:02:26;30.30;60.40
34099;DHT22;20374;49.474;10.944;2023-05-07T10:04:54;29.90;59.10
34099;DHT22;20374;49.474;10.944;2023-05-07T10:07:26;30.00;60.80
34099;DHT22;20374;49.474;10.944;2023-05-07T10:09:57;30.10;59.00
34099;DHT22;20374;49.474;10.944;2023-05-07T10:12:33;30.50;60.60
34099;DHT22;20374;49.474;10.944;2023-05-07T10:15:07;30.80;57.90
34099;DHT22;20374;49.474;10.944;2023-05-07T10:17:36;31.30;57.30
34099;DHT22;20374;49.474;10.944;2023-05-07T10:20:03;31.00;56.80
34099;DHT22;20374;49.474;10.944;2023-05-07T10:22:34;30.70;57.20
34099;DHT22;20374;49.474;10.944;2023-05-07T10:25:09;29.90;59.40
34099;DHT22;20374;49.474;10.944;2023-05-07T10:27:39;29.40;60.20
34099;DHT22;20374;49.474;10.944;2023-05-07T10:30:19;29.60;59.40
34099;DHT22;20374;49.474;10.944;2023-05-07T10:32:53;30.00;59.40
34099;DHT22;20374;49.474;10.944;2023-05-07T10:35:29;29.20;59.30
34099;DHT22;20374;49.474;10.944;2023-05-07T10:37:59;28.70;59.10
34099;DHT22;20374;49.474;10.944;2023-05-07T10:40:27;28.10;62.90
34099;DHT22;20374;49.474;10.944;2023-05-07T10:43:02;27.80;62.10
34099;DHT22;20374;49.474;10.944;2023-05-07T10:45:35;27.20;61.70
34099;DHT22;20374;49.474;10.944;2023-05-07T10:48:15;26.70;64.40
34099;DHT22;20374;49.474;10.944;2023-05-07T10:50:47;26.60;66.20
34099;DHT22;20374;49.474;10.944;2023-05-07T10:58:49;26.80;64.10
34099;DHT22;20374;49.474;10.944;2023-05-07T11:04:16;25.90;66.90
34099;DHT22;20374;49.474;10.944;2023-05-07T11:09:57;25.60;65.30
34099;DHT22;20374;49.474;10.944;2023-05-07T11:15:31;24.90;68.20
34099;DHT22;20374;49.474;10.944;2023-05-07T11:17:59;24.70;69.70
34099;DHT22;20374;49.474;10.944;2023-05-07T11:20:48;24.60;70.40
34099;DHT22;20374;49.474;10.944;2023-05-07T11:26:10;25.90;68.70
34099;DHT22;20374;49.474;10.944;2023-05-07T11:28:39;27.20;64.50
34099;DHT22;20374;49.474;10.944;2023-05-07T11:31:05;28.30;61.70
34099;DHT22;20374;49.474;10.944;2023-05-07T11:33:32;28.70;61.10
34099;DHT22;20374;49.474;10.944;2023-05-07T11:36:03;29.20;61.70
34099;DHT22;20374;49.474;10.944;2023-05-07T11:38:37;29.00;60.20
34099;DHT22;20374;49.474;10.944;2023-05-07T11:41:04;29.00;58.30
34099;DHT22;20374;49.474;10.944;2023-05-07T11:43:34;29.40;59.30
34099;DHT22;20374;49.474;10.944;2023-05-07T11:46:09;30.00;58.60
34099;DHT22;20374;49.474;10.944;2023-05-07T11:48:36;30.10;56.90
34099;DHT22;20374;49.474;10.944;2023-05-07T11:51:04;30.30;56.80
34099;DHT22;20374;49.474;10.944;2023-05-07T11:53:38;30.10;55.50
34099;DHT22;20374;49.474;10.944;2023-05-07T11:58:33;28.90;58.30
34099;DHT22;20374;49.474;10.944;2023-05-07T12:00:59;28.50;57.80
34099;DHT22;20374;49.474;10.944;2023-05-07T12:03:25;28.30;56.90
34099;DHT22;20374;49.474;10.944;2023-05-07T12:05:51;28.00;58.80
34099;DHT22;20374;49.474;10.944;2023-05-07T12:08:18;27.90;59.80
34099;DHT22;20374;49.474;10.944;2023-05-07T12:10:46;27.40;59.10
34099;DHT22;20374;49.474;10.944;2023-05-07T12:13:19;26.90;62.50
34099;DHT22;20374;49.474;10.944;2023-05-07T12:15:46;26.90;60.40
34099;DHT22;20374;49.474;10.944;2023-05-07T12:18:13;27.50;59.50
34099;DHT22;20374;49.474;10.944;2023-05-07T12:20:39;28.10;58.70
34099;DHT22;20374;49.474;10.944;2023-05-07T12:23:05;28.70;59.50
34099;DHT22;20374;49.474;10.944;2023-05-07T12:25:35;29.50;56.80
34099;DHT22;20374;49.474;10.944;2023-05-07T12:28:02;29.90;56.80
34099;DHT22;20374;49.474;10.944;2023-05-07T12:30:32;30.30;56.60
34099;DHT22;20374;49.474;10.944;2023-05-07T12:32:58;30.40;54.50
34099;DHT22;20374;49.474;10.944;2023-05-07T12:35:31;30.50;55.40
34099;DHT22;20374;49.474;10.944;2023-05-07T12:37:58;30.80;54.10
34099;DHT22;20374;49.474;10.944;2023-05-07T12:40:39;30.90;56.40
34099;DHT22;20374;49.474;10.944;2023-05-07T12:43:05;31.10;56.30
34099;DHT22;20374;49.474;10.944;2023-05-07T12:45:31;31.00;55.90
34099;DHT22;20374;49.474;10.944;2023-05-07T12:48:02;31.40;54.70
34099;DHT22;20374;49.474;10.944;2023-05-07T12:50:31;31.20;55.20
34099;DHT22;20374;49.474;10.944;2023-05-07T12:52:59;30.90;55.10
34099;DHT22;20374;49.474;10.944;2023-05-07T12:55:25;30.20;55.80
34099;DHT22;20374;49.474;10.944;2023-05-07T12:57:53;29.70;56.30
34099;DHT22;20374;49.474;10.944;2023-05-07T13:00:39;28.80;56.80
34099;DHT22;20374;49.474;10.944;2023-05-07T13:03:05;27.70;58.70
34099;DHT22;20374;49.474;10.944;2023-05-07T13:05:31;27.40;61.40
34099;DHT22;20374;49.474;10.944;2023-05-07T13:07:58;27.30;60.90
34099;DHT22;20374;49.474;10.944;2023-05-07T13:10:24;26.80;59.90
34099;DHT22;20374;49.474;10.944;2023-05-07T13:12:51;26.30;61.50
34099;DHT22;20374;49.474;10.944;2023-05-07T13:15:17;25.90;62.20
34099;DHT22;20374;49.474;10.944;2023-05-07T13:17:43;25.70;65.00
34099;DHT22;20374;49.474;10.944;2023-05-07T13:20:12;25.60;62.50
34099;DHT22;20374;49.474;10.944;2023-05-07T13:22:41;25.30;62.70
34099;DHT22;20374;49.474;10.944;2023-05-07T13:25:07;25.00;64.00
34099;DHT22;20374;49.474;10.944;2023-05-07T13:27:33;24.90;64.40
34099;DHT22;20374;49.474;10.944;2023-05-07T13:30:03;24.60;65.10
34099;DHT22;20374;49.474;10.944;2023-05-07T13:32:30;24.40;65.70
34099;DHT22;20374;49.474;10.944;2023-05-07T13:34:56;24.40;64.50
34099;DHT22;20374;49.474;10.944;2023-05-07T13:37:22;24.30;66.80
34099;DHT22;20374;49.474;10.944;2023-05-07T13:39:48;24.30;65.60
34099;DHT22;20374;49.474;10.944;2023-05-07T13:42:14;24.20;65.70
34099;DHT22;20374;49.474;10.944;2023-05-07T13:44:40;24.30;65.20
34099;DHT22;20374;49.474;10.944;2023-05-07T13:47:06;24.40;65.60
34099;DHT22;20374;49.474;10.944;2023-05-07T13:49:32;24.50;64.80
34099;DHT22;20374;49.474;10.944;2023-05-07T13:51:57;24.40;65.00
34099;DHT22;20374;49.474;10.944;2023-05-07T13:54:23;24.80;63.40
34099;DHT22;20374;49.474;10.944;2023-05-07T13:56:49;25.10;62.80
34099;DHT22;20374;49.474;10.944;2023-05-07T13:59:16;25.20;62.80
34099;DHT22;20374;49.474;10.944;2023-05-07T14:01:42;25.40;63.30
34099;DHT22;20374;49.474;10.944;2023-05-07T14:04:08;25.50;65.20
34099;DHT22;20374;49.474;10.944;2023-05-07T14:06:34;25.80;62.60
34099;DHT22;20374;49.474;10.944;2023-05-07T14:09:00;26.00;62.10
34099;DHT22;20374;49.474;10.944;2023-05-07T14:11:26;26.20;61.70
34099;DHT22;20374;49.474;10.944;2023-05-07T14:13:51;26.50;59.50
34099;DHT22;20374;49.474;10.944;2023-05-07T14:16:17;26.30;60.10
34099;DHT22;20374;49.474;10.944;2023-05-07T14:18:43;26.20;60.10
34099;DHT22;20374;49.474;10.944;2023-05-07T14:21:09;25.80;60.50
34099;DHT22;20374;49.474;10.944;2023-05-07T14:23:35;25.60;61.40
34099;DHT22;20374;49.474;10.944;2023-05-07T14:26:01;25.70;62.30
34099;DHT22;20374;49.474;10.944;2023-05-07T14:28:27;25.80;60.80
34099;DHT22;20374;49.474;10.944;2023-05-07T14:30:53;25.80;62.00
34099;DHT22;20374;49.474;10.944;2023-05-07T14:33:19;25.90;61.20
34099;DHT22;20374;49.474;10.944;2023-05-07T14:35:45;26.00;61.50
34099;DHT22;20374;49.474;10.944;2023-05-07T14:38:14;26.00;61.20
34099;DHT22;20374;49.474;10.944;2023-05-07T14:40:41;25.80;61.60
34099;DHT22;20374;49.474;10.944;2023-05-07T14:43:07;25.50;61.60
34099;DHT22;20374;49.474;10.944;2023-05-07T14:45:32;25.30;61.80
34099;DHT22;20374;49.474;10.944;2023-05-07T14:47:58;24.90;61.70
34099;DHT22;20374;49.474;10.944;2023-05-07T14:50:24;24.70;62.50
34099;DHT22;20374;49.474;10.944;2023-05-07T14:52:50;24.60;64.10
34099;DHT22;20374;49.474;10.944;2023-05-07T14:55:16;24.50;64.50
34099;DHT22;20374;49.474;10.944;2023-05-07T14:57:42;24.40;66.10
34099;DHT22;20374;49.474;10.944;2023-05-07T15:00:12;24.40;65.60
34099;DHT22;20374;49.474;10.944;2023-05-07T15:02:38;24.10;65.30
34099;DHT22;20374;49.474;10.944;2023-05-07T15:05:04;23.90;66.40
34099;DHT22;20374;49.474;10.944;2023-05-07T15:07:30;23.70;66.70
34099;DHT22;20374;49.474;10.944;2023-05-07T15:09:58;23.70;65.70
34099;DHT22;20374;49.474;10.944;2023-05-07T15:12:24;23.60;66.70
34099;DHT22;20374;49.474;10.944;2023-05-07T15:14:52;23.50;66.20
34099;DHT22;20374;49.474;10.944;2023-05-07T15:17:18;23.50;67.10
34099;DHT22;20374;49.474;10.944;2023-05-07T15:19:44;23.50;67.20
34099;DHT22;20374;49.474;10.944;2023-05-07T15:22:10;23.50;67.90
34099;DHT22;20374;49.474;10.944;2023-05-07T15:24:36;23.50;68.30
34099;DHT22;20374;49.474;10.944;2023-05-07T15:27:02;23.60;68.80
34099;DHT22;20374;49.474;10.944;2023-05-07T15:29:28;23.60;67.10
34099;DHT22;20374;49.474;10.944;2023-05-07T15:31:56;23.60;66.90
34099;DHT22;20374;49.474;10.944;2023-05-07T15:34:22;23.50;66.30
34099;DHT22;20374;49.474;10.944;2023-05-07T15:36:49;23.40;66.80
34099;DHT22;20374;49.474;10.944;2023-05-07T15:39:16;23.20;66.70